sensor_id;sensor_type;location;lat;lon;timestamp;P1;durP1;ratioP1;P2;durP2;ratioP2
10823;SDS011;39116;59.332;18.034;2023-03-16T00:01:33;4.63;;;2.00;;
10823;SDS011;39116;59.332;18.034;2023-03-16T00:03:55;1.63;;;1.03;;
10823;SDS011;39116;59.332;18.034;2023-03-16T00:06:18;3.20;;;1.10;;
10823;SDS011;39116;59.332;18.034;2023-03-16T00:08:40;1.37;;;0.83;;
10823;SDS011;39116;59.332;18.034;2023-03-16T00:11:02;2.57;;;1.50;;
10823;SDS011;39116;59.332;18.034;2023-03-16T00:13:24;5.10;;;1.13;;
10823;SDS011;39116;59.332;18.034;2023-03-16T00:15:48;3.97;;;1.60;;
10823;SDS011;39116;59.332;18.034;2023-03-16T00:18:11;3.53;;;1.57;;
10823;SDS011;39116;59.332;18.034;2023-03-16T00:20:34;4.30;;;1.20;;
10823;SDS011;39116;59.332;18.034;2023-03-16T00:22:57;1.97;;;1.10;;
10823;SDS011;39116;59.332;18.034;2023-03-16T00:25:19;4.97;;;1.53;;
10823;SDS011;39116;59.332;18.034;2023-03-16T00:27:43;3.70;;;1.10;;
10823;SDS011;39116;59.332;18.034;2023-03-16T00:30:05;6.30;;;1.30;;
10823;SDS011;39116;59.332;18.034;2023-03-16T00:32:29;1.20;;;0.80;;
10823;SDS011;39116;59.332;18.034;2023-03-16T00:34:52;4.67;;;1.57;;
10823;SDS011;39116;59.332;18.034;2023-03-16T00:37:15;4.33;;;0.93;;
10823;SDS011;39116;59.332;18.034;2023-03-16T00:39:39;1.63;;;0.90;;
10823;SDS011;39116;59.332;18.034;2023-03-16T00:42:02;1.33;;;0.90;;
10823;SDS011;39116;59.332;18.034;2023-03-16T00:44:24;2.83;;;1.10;;
10823;SDS011;39116;59.332;18.034;2023-03-16T00:46:46;2.63;;;1.17;;
10823;SDS011;39116;59.332;18.034;2023-03-16T00:49:07;2.83;;;1.00;;
10823;SDS011;39116;59.332;18.034;2023-03-16T00:51:29;3.47;;;1.23;;
10823;SDS011;39116;59.332;18.034;2023-03-16T00:53:53;2.20;;;1.00;;
10823;SDS011;39116;59.332;18.034;2023-03-16T00:56:16;1.90;;;1.00;;
10823;SDS011;39116;59.332;18.034;2023-03-16T00:58:38;2.50;;;1.30;;
10823;SDS011;39116;59.332;18.034;2023-03-16T01:01:02;4.10;;;0.90;;
10823;SDS011;39116;59.332;18.034;2023-03-16T01:03:25;1.93;;;1.03;;
10823;SDS011;39116;59.332;18.034;2023-03-16T01:05:47;2.80;;;1.10;;
10823;SDS011;39116;59.332;18.034;2023-03-16T01:08:09;1.77;;;1.03;;
10823;SDS011;39116;59.332;18.034;2023-03-16T01:10:32;2.03;;;1.00;;
10823;SDS011;39116;59.332;18.034;2023-03-16T01:12:55;1.97;;;1.07;;
10823;SDS011;39116;59.332;18.034;2023-03-16T01:15:17;3.23;;;1.30;;
10823;SDS011;39116;59.332;18.034;2023-03-16T01:17:39;2.93;;;1.30;;
10823;SDS011;39116;59.332;18.034;2023-03-16T01:20:01;1.93;;;0.80;;
10823;SDS011;39116;59.332;18.034;2023-03-16T01:22:27;2.73;;;1.00;;
10823;SDS011;39116;59.332;18.034;2023-03-16T01:24:49;5.23;;;1.20;;
10823;SDS011;39116;59.332;18.034;2023-03-16T01:27:11;2.60;;;1.37;;
10823;SDS011;39116;59.332;18.034;2023-03-16T01:29:35;2.57;;;1.33;;
10823;SDS011;39116;59.332;18.034;2023-03-16T01:31:58;1.83;;;0.90;;
10823;SDS011;39116;59.332;18.034;2023-03-16T01:34:20;2.83;;;1.07;;
10823;SDS011;39116;59.332;18.034;2023-03-16T01:36:42;2.47;;;1.03;;
10823;SDS011;39116;59.332;18.034;2023-03-16T01:39:05;2.57;;;1.07;;
10823;SDS011;39116;59.332;18.034;2023-03-16T01:41:27;3.87;;;0.97;;
10823;SDS011;39116;59.332;18.034;2023-03-16T01:43:48;2.63;;;1.30;;
10823;SDS011;39116;59.332;18.034;2023-03-16T01:46:15;2.97;;;1.07;;
10823;SDS011;39116;59.332;18.034;2023-03-16T01:48:41;2.20;;;1.27;;
10823;SDS011;39116;59.332;18.034;2023-03-16T01:51:07;1.43;;;1.13;;
10823;SDS011;39116;59.332;18.034;2023-03-16T01:53:32;7.60;;;1.10;;
10823;SDS011;39116;59.332;18.034;2023-03-16T01:55:55;1.30;;;0.90;;
10823;SDS011;39116;59.332;18.034;2023-03-16T01:58:20;3.00;;;0.93;;
10823;SDS011;39116;59.332;18.034;2023-03-16T02:00:43;1.87;;;1.10;;
10823;SDS011;39116;59.332;18.034;2023-03-16T02:03:07;1.40;;;0.90;;
10823;SDS011;39116;59.332;18.034;2023-03-16T02:05:35;2.43;;;1.07;;
10823;SDS011;39116;59.332;18.034;2023-03-16T02:08:01;3.80;;;1.10;;
10823;SDS011;39116;59.332;18.034;2023-03-16T02:10:25;3.90;;;1.67;;
10823;SDS011;39116;59.332;18.034;2023-03-16T02:12:48;5.23;;;1.60;;
10823;SDS011;39116;59.332;18.034;2023-03-16T02:15:12;2.50;;;1.20;;
10823;SDS011;39116;59.332;18.034;2023-03-16T02:17:35;2.27;;;1.00;;
10823;SDS011;39116;59.332;18.034;2023-03-16T02:20:01;3.63;;;1.10;;
10823;SDS011;39116;59.332;18.034;2023-03-16T02:22:33;2.37;;;1.17;;
10823;SDS011;39116;59.332;18.034;2023-03-16T02:24:56;1.77;;;0.83;;
10823;SDS011;39116;59.332;18.034;2023-03-16T02:27:19;1.83;;;1.00;;
10823;SDS011;39116;59.332;18.034;2023-03-16T02:29:52;2.53;;;0.93;;
10823;SDS011;39116;59.332;18.034;2023-03-16T02:32:19;1.47;;;1.20;;
10823;SDS011;39116;59.332;18.034;2023-03-16T02:34:41;1.53;;;0.80;;
10823;SDS011;39116;59.332;18.034;2023-03-16T02:37:04;1.63;;;0.80;;
10823;SDS011;39116;59.332;18.034;2023-03-16T02:39:27;2.73;;;1.40;;
10823;SDS011;39116;59.332;18.034;2023-03-16T02:41:49;1.23;;;1.10;;
10823;SDS011;39116;59.332;18.034;2023-03-16T02:44:12;1.63;;;1.10;;
10823;SDS011;39116;59.332;18.034;2023-03-16T02:46:39;1.20;;;0.90;;
10823;SDS011;39116;59.332;18.034;2023-03-16T02:49:04;2.50;;;1.10;;
10823;SDS011;39116;59.332;18.034;2023-03-16T02:51:30;1.43;;;1.00;;
10823;SDS011;39116;59.332;18.034;2023-03-16T02:53:52;4.90;;;1.00;;
10823;SDS011;39116;59.332;18.034;2023-03-16T02:56:14;1.50;;;1.00;;
10823;SDS011;39116;59.332;18.034;2023-03-16T02:58:36;2.67;;;0.90;;
10823;SDS011;39116;59.332;18.034;2023-03-16T03:00:58;2.03;;;1.00;;
10823;SDS011;39116;59.332;18.034;2023-03-16T03:03:21;0.90;;;0.80;;
10823;SDS011;39116;59.332;18.034;2023-03-16T03:05:43;2.43;;;1.17;;
10823;SDS011;39116;59.332;18.034;2023-03-16T03:08:05;2.20;;;1.20;;
10823;SDS011;39116;59.332;18.034;2023-03-16T03:10:28;1.17;;;0.87;;
10823;SDS011;39116;59.332;18.034;2023-03-16T03:12:50;2.13;;;1.10;;
10823;SDS011;39116;59.332;18.034;2023-03-16T03:15:12;1.80;;;0.97;;
10823;SDS011;39116;59.332;18.034;2023-03-16T03:17:34;1.97;;;1.03;;
10823;SDS011;39116;59.332;18.034;2023-03-16T03:19:58;3.37;;;1.40;;
10823;SDS011;39116;59.332;18.034;2023-03-16T03:22:32;1.47;;;1.00;;
10823;SDS011;39116;59.332;18.034;2023-03-16T03:24:54;1.07;;;0.77;;
10823;SDS011;39116;59.332;18.034;2023-03-16T03:27:16;1.33;;;0.73;;
10823;SDS011;39116;59.332;18.034;2023-03-16T03:29:38;1.93;;;0.90;;
10823;SDS011;39116;59.332;18.034;2023-03-16T03:32:00;4.10;;;1.07;;
10823;SDS011;39116;59.332;18.034;2023-03-16T03:34:22;2.20;;;1.00;;
10823;SDS011;39116;59.332;18.034;2023-03-16T03:36:47;1.10;;;0.80;;
10823;SDS011;39116;59.332;18.034;2023-03-16T03:39:09;1.17;;;0.80;;
10823;SDS011;39116;59.332;18.034;2023-03-16T03:41:31;1.10;;;0.80;;
10823;SDS011;39116;59.332;18.034;2023-03-16T03:43:53;2.57;;;1.10;;
10823;SDS011;39116;59.332;18.034;2023-03-16T03:46:15;1.53;;;1.13;;
10823;SDS011;39116;59.332;18.034;2023-03-16T03:48:37;1.40;;;0.93;;
10823;SDS011;39116;59.332;18.034;2023-03-16T03:50:59;1.43;;;0.90;;
10823;SDS011;39116;59.332;18.034;2023-03-16T03:53:22;2.33;;;1.27;;
10823;SDS011;39116;59.332;18.034;2023-03-16T03:55:44;1.90;;;1.17;;
10823;SDS011;39116;59.332;18.034;2023-03-16T03:58:06;3.03;;;1.10;;
10823;SDS011;39116;59.332;18.034;2023-03-16T04:00:29;1.10;;;1.00;;
10823;SDS011;39116;59.332;18.034;2023-03-16T04:02:50;2.50;;;0.80;;
10823;SDS011;39116;59.332;18.034;2023-03-16T04:05:12;2.17;;;0.80;;
10823;SDS011;39116;59.332;18.034;2023-03-16T04:07:34;1.40;;;0.97;;
10823;SDS011;39116;59.332;18.034;2023-03-16T04:09:58;2.43;;;1.00;;
10823;SDS011;39116;59.332;18.034;2023-03-16T04:12:20;2.23;;;1.10;;
10823;SDS011;39116;59.332;18.034;2023-03-16T04:14:42;1.70;;;1.03;;
10823;SDS011;39116;59.332;18.034;2023-03-16T04:17:04;1.37;;;0.83;;
10823;SDS011;39116;59.332;18.034;2023-03-16T04:19:26;1.20;;;0.83;;
10823;SDS011;39116;59.332;18.034;2023-03-16T04:21:48;1.57;;;1.00;;
10823;SDS011;39116;59.332;18.034;2023-03-16T04:24:10;1.57;;;1.03;;
10823;SDS011;39116;59.332;18.034;2023-03-16T04:26:35;5.83;;;1.17;;
10823;SDS011;39116;59.332;18.034;2023-03-16T04:28:57;1.87;;;1.13;;
10823;SDS011;39116;59.332;18.034;2023-03-16T04:31:19;3.43;;;1.13;;
10823;SDS011;39116;59.332;18.034;2023-03-16T04:33:41;2.97;;;1.10;;
10823;SDS011;39116;59.332;18.034;2023-03-16T04:36:04;1.50;;;1.20;;
10823;SDS011;39116;59.332;18.034;2023-03-16T04:38:28;2.17;;;0.90;;
10823;SDS011;39116;59.332;18.034;2023-03-16T04:40:52;1.33;;;0.80;;
10823;SDS011;39116;59.332;18.034;2023-03-16T04:43:16;2.10;;;0.80;;
10823;SDS011;39116;59.332;18.034;2023-03-16T04:45:38;2.37;;;1.00;;
10823;SDS011;39116;59.332;18.034;2023-03-16T04:48:00;1.03;;;0.93;;
10823;SDS011;39116;59.332;18.034;2023-03-16T04:50:22;2.10;;;0.83;;
10823;SDS011;39116;59.332;18.034;2023-03-16T04:52:44;1.73;;;1.00;;
10823;SDS011;39116;59.332;18.034;2023-03-16T04:55:06;1.40;;;1.13;;
10823;SDS011;39116;59.332;18.034;2023-03-16T04:57:28;1.80;;;0.97;;
10823;SDS011;39116;59.332;18.034;2023-03-16T04:59:52;2.43;;;1.10;;
10823;SDS011;39116;59.332;18.034;2023-03-16T05:02:14;2.17;;;1.20;;
10823;SDS011;39116;59.332;18.034;2023-03-16T05:04:39;3.13;;;1.07;;
10823;SDS011;39116;59.332;18.034;2023-03-16T05:07:01;1.33;;;0.97;;
10823;SDS011;39116;59.332;18.034;2023-03-16T05:09:23;1.57;;;1.03;;
10823;SDS011;39116;59.332;18.034;2023-03-16T05:11:45;3.40;;;1.10;;
10823;SDS011;39116;59.332;18.034;2023-03-16T05:14:07;4.07;;;1.27;;
10823;SDS011;39116;59.332;18.034;2023-03-16T05:16:30;2.90;;;1.30;;
10823;SDS011;39116;59.332;18.034;2023-03-16T05:18:53;2.77;;;1.27;;
10823;SDS011;39116;59.332;18.034;2023-03-16T05:21:17;3.03;;;1.40;;
10823;SDS011;39116;59.332;18.034;2023-03-16T05:23:39;2.53;;;1.47;;
10823;SDS011;39116;59.332;18.034;2023-03-16T05:26:01;3.40;;;1.40;;
10823;SDS011;39116;59.332;18.034;2023-03-16T05:28:23;1.37;;;1.10;;
10823;SDS011;39116;59.332;18.034;2023-03-16T05:30:45;2.10;;;1.13;;
10823;SDS011;39116;59.332;18.034;2023-03-16T05:33:09;1.57;;;1.10;;
10823;SDS011;39116;59.332;18.034;2023-03-16T05:35:31;1.70;;;1.20;;
10823;SDS011;39116;59.332;18.034;2023-03-16T05:37:52;1.80;;;1.10;;
10823;SDS011;39116;59.332;18.034;2023-03-16T05:40:15;2.73;;;1.20;;
10823;SDS011;39116;59.332;18.034;2023-03-16T05:42:37;1.90;;;1.10;;
10823;SDS011;39116;59.332;18.034;2023-03-16T05:44:59;2.93;;;1.30;;
10823;SDS011;39116;59.332;18.034;2023-03-16T05:47:21;2.67;;;1.20;;
10823;SDS011;39116;59.332;18.034;2023-03-16T05:49:44;4.87;;;1.40;;
10823;SDS011;39116;59.332;18.034;2023-03-16T05:52:06;4.03;;;1.60;;
10823;SDS011;39116;59.332;18.034;2023-03-16T05:54:28;1.97;;;1.10;;
10823;SDS011;39116;59.332;18.034;2023-03-16T05:56:50;2.70;;;1.17;;
10823;SDS011;39116;59.332;18.034;2023-03-16T05:59:12;2.93;;;1.20;;
10823;SDS011;39116;59.332;18.034;2023-03-16T06:01:35;4.50;;;1.37;;
10823;SDS011;39116;59.332;18.034;2023-03-16T06:03:56;6.27;;;1.30;;
10823;SDS011;39116;59.332;18.034;2023-03-16T06:06:20;2.07;;;1.23;;
10823;SDS011;39116;59.332;18.034;2023-03-16T06:08:42;2.43;;;1.40;;
10823;SDS011;39116;59.332;18.034;2023-03-16T06:11:04;2.77;;;1.27;;
10823;SDS011;39116;59.332;18.034;2023-03-16T06:13:26;3.60;;;1.57;;
10823;SDS011;39116;59.332;18.034;2023-03-16T06:15:49;3.20;;;1.60;;
10823;SDS011;39116;59.332;18.034;2023-03-16T06:18:11;2.53;;;1.40;;
10823;SDS011;39116;59.332;18.034;2023-03-16T06:20:33;4.07;;;1.53;;
10823;SDS011;39116;59.332;18.034;2023-03-16T06:22:56;3.23;;;1.33;;
10823;SDS011;39116;59.332;18.034;2023-03-16T06:25:18;3.97;;;1.80;;
10823;SDS011;39116;59.332;18.034;2023-03-16T06:27:40;3.80;;;1.50;;
10823;SDS011;39116;59.332;18.034;2023-03-16T06:30:03;2.63;;;1.50;;
10823;SDS011;39116;59.332;18.034;2023-03-16T06:32:26;5.70;;;1.70;;
10823;SDS011;39116;59.332;18.034;2023-03-16T06:34:48;5.00;;;1.60;;
10823;SDS011;39116;59.332;18.034;2023-03-16T06:37:10;3.50;;;1.43;;
10823;SDS011;39116;59.332;18.034;2023-03-16T06:39:34;4.10;;;1.40;;
10823;SDS011;39116;59.332;18.034;2023-03-16T06:41:56;3.87;;;1.47;;
10823;SDS011;39116;59.332;18.034;2023-03-16T06:44:18;4.40;;;1.70;;
10823;SDS011;39116;59.332;18.034;2023-03-16T06:46:40;8.13;;;1.50;;
10823;SDS011;39116;59.332;18.034;2023-03-16T06:49:02;5.30;;;2.00;;
10823;SDS011;39116;59.332;18.034;2023-03-16T06:51:24;7.30;;;1.90;;
10823;SDS011;39116;59.332;18.034;2023-03-16T06:53:46;6.37;;;1.43;;
10823;SDS011;39116;59.332;18.034;2023-03-16T06:56:09;5.53;;;1.70;;
10823;SDS011;39116;59.332;18.034;2023-03-16T06:58:31;5.30;;;1.83;;
10823;SDS011;39116;59.332;18.034;2023-03-16T07:00:53;3.83;;;1.77;;
10823;SDS011;39116;59.332;18.034;2023-03-16T07:03:15;5.63;;;1.83;;
10823;SDS011;39116;59.332;18.034;2023-03-16T07:05:38;6.63;;;1.90;;
10823;SDS011;39116;59.332;18.034;2023-03-16T07:08:00;5.03;;;1.77;;
10823;SDS011;39116;59.332;18.034;2023-03-16T07:10:23;5.57;;;1.60;;
10823;SDS011;39116;59.332;18.034;2023-03-16T07:12:46;4.20;;;1.97;;
10823;SDS011;39116;59.332;18.034;2023-03-16T07:15:09;6.80;;;1.70;;
10823;SDS011;39116;59.332;18.034;2023-03-16T07:17:32;2.80;;;1.50;;
10823;SDS011;39116;59.332;18.034;2023-03-16T07:19:54;11.67;;;1.80;;
10823;SDS011;39116;59.332;18.034;2023-03-16T07:22:16;6.80;;;1.67;;
10823;SDS011;39116;59.332;18.034;2023-03-16T07:24:38;4.67;;;1.73;;
10823;SDS011;39116;59.332;18.034;2023-03-16T07:27:00;7.93;;;2.20;;
10823;SDS011;39116;59.332;18.034;2023-03-16T07:29:24;6.77;;;2.30;;
10823;SDS011;39116;59.332;18.034;2023-03-16T07:31:45;10.70;;;2.10;;
10823;SDS011;39116;59.332;18.034;2023-03-16T07:34:08;12.87;;;2.00;;
10823;SDS011;39116;59.332;18.034;2023-03-16T07:36:30;4.80;;;2.10;;
10823;SDS011;39116;59.332;18.034;2023-03-16T07:38:52;9.27;;;2.00;;
10823;SDS011;39116;59.332;18.034;2023-03-16T07:41:14;6.57;;;2.20;;
10823;SDS011;39116;59.332;18.034;2023-03-16T07:43:36;5.90;;;1.80;;
10823;SDS011;39116;59.332;18.034;2023-03-16T07:45:59;14.33;;;2.23;;
10823;SDS011;39116;59.332;18.034;2023-03-16T07:48:21;4.60;;;2.07;;
10823;SDS011;39116;59.332;18.034;2023-03-16T07:50:43;7.10;;;2.53;;
10823;SDS011;39116;59.332;18.034;2023-03-16T07:53:07;9.97;;;1.97;;
10823;SDS011;39116;59.332;18.034;2023-03-16T07:55:29;4.57;;;2.43;;
10823;SDS011;39116;59.332;18.034;2023-03-16T07:57:51;7.87;;;2.40;;
10823;SDS011;39116;59.332;18.034;2023-03-16T08:00:13;8.00;;;2.23;;
10823;SDS011;39116;59.332;18.034;2023-03-16T08:02:37;6.33;;;2.00;;
10823;SDS011;39116;59.332;18.034;2023-03-16T08:04:59;11.00;;;2.33;;
10823;SDS011;39116;59.332;18.034;2023-03-16T08:07:21;6.53;;;2.00;;
10823;SDS011;39116;59.332;18.034;2023-03-16T08:09:43;8.27;;;2.40;;
10823;SDS011;39116;59.332;18.034;2023-03-16T08:12:05;7.93;;;2.43;;
10823;SDS011;39116;59.332;18.034;2023-03-16T08:14:29;11.70;;;2.17;;
10823;SDS011;39116;59.332;18.034;2023-03-16T08:16:53;12.70;;;2.47;;
10823;SDS011;39116;59.332;18.034;2023-03-16T08:19:16;9.93;;;2.20;;
10823;SDS011;39116;59.332;18.034;2023-03-16T08:21:39;5.53;;;2.07;;
10823;SDS011;39116;59.332;18.034;2023-03-16T08:24:01;11.63;;;2.43;;
10823;SDS011;39116;59.332;18.034;2023-03-16T08:26:23;12.60;;;2.50;;
10823;SDS011;39116;59.332;18.034;2023-03-16T08:28:46;11.10;;;2.00;;
10823;SDS011;39116;59.332;18.034;2023-03-16T08:31:11;8.97;;;1.93;;
10823;SDS011;39116;59.332;18.034;2023-03-16T08:33:34;11.30;;;2.40;;
10823;SDS011;39116;59.332;18.034;2023-03-16T08:35:57;4.73;;;2.13;;
10823;SDS011;39116;59.332;18.034;2023-03-16T08:38:19;8.07;;;2.40;;
10823;SDS011;39116;59.332;18.034;2023-03-16T08:40:41;14.67;;;2.63;;
10823;SDS011;39116;59.332;18.034;2023-03-16T08:43:07;15.03;;;2.97;;
10823;SDS011;39116;59.332;18.034;2023-03-16T08:45:29;8.37;;;2.77;;
10823;SDS011;39116;59.332;18.034;2023-03-16T08:47:52;8.30;;;2.10;;
10823;SDS011;39116;59.332;18.034;2023-03-16T08:50:14;17.70;;;2.67;;
10823;SDS011;39116;59.332;18.034;2023-03-16T08:52:37;10.30;;;2.30;;
10823;SDS011;39116;59.332;18.034;2023-03-16T08:54:59;7.77;;;2.17;;
10823;SDS011;39116;59.332;18.034;2023-03-16T08:57:23;9.50;;;2.70;;
10823;SDS011;39116;59.332;18.034;2023-03-16T08:59:45;7.20;;;2.30;;
10823;SDS011;39116;59.332;18.034;2023-03-16T09:02:09;11.60;;;2.83;;
10823;SDS011;39116;59.332;18.034;2023-03-16T09:04:33;11.93;;;2.00;;
10823;SDS011;39116;59.332;18.034;2023-03-16T09:06:54;5.20;;;1.87;;
10823;SDS011;39116;59.332;18.034;2023-03-16T09:09:19;13.77;;;2.60;;
10823;SDS011;39116;59.332;18.034;2023-03-16T09:11:41;6.83;;;2.30;;
10823;SDS011;39116;59.332;18.034;2023-03-16T09:14:03;9.67;;;2.30;;
10823;SDS011;39116;59.332;18.034;2023-03-16T09:16:26;7.73;;;2.33;;
10823;SDS011;39116;59.332;18.034;2023-03-16T09:18:50;8.37;;;2.33;;
10823;SDS011;39116;59.332;18.034;2023-03-16T09:21:12;10.77;;;2.33;;
10823;SDS011;39116;59.332;18.034;2023-03-16T09:23:34;5.73;;;2.03;;
10823;SDS011;39116;59.332;18.034;2023-03-16T09:25:58;5.67;;;1.77;;
10823;SDS011;39116;59.332;18.034;2023-03-16T09:28:21;9.00;;;1.90;;
10823;SDS011;39116;59.332;18.034;2023-03-16T09:30:44;9.70;;;2.73;;
10823;SDS011;39116;59.332;18.034;2023-03-16T09:33:06;7.30;;;2.40;;
10823;SDS011;39116;59.332;18.034;2023-03-16T09:35:29;7.17;;;1.90;;
10823;SDS011;39116;59.332;18.034;2023-03-16T09:37:51;10.43;;;2.03;;
10823;SDS011;39116;59.332;18.034;2023-03-16T09:40:17;7.23;;;2.43;;
10823;SDS011;39116;59.332;18.034;2023-03-16T09:42:44;7.53;;;1.73;;
10823;SDS011;39116;59.332;18.034;2023-03-16T09:45:22;9.00;;;1.90;;
10823;SDS011;39116;59.332;18.034;2023-03-16T09:47:51;9.60;;;2.00;;
10823;SDS011;39116;59.332;18.034;2023-03-16T09:50:20;8.10;;;2.03;;
10823;SDS011;39116;59.332;18.034;2023-03-16T09:52:46;4.50;;;2.03;;
10823;SDS011;39116;59.332;18.034;2023-03-16T09:55:18;7.70;;;3.97;;
10823;SDS011;39116;59.332;18.034;2023-03-16T09:57:48;6.63;;;3.00;;
10823;SDS011;39116;59.332;18.034;2023-03-16T10:00:16;5.90;;;1.70;;
10823;SDS011;39116;59.332;18.034;2023-03-16T10:02:45;6.93;;;2.10;;
10823;SDS011;39116;59.332;18.034;2023-03-16T10:05:19;11.00;;;1.90;;
10823;SDS011;39116;59.332;18.034;2023-03-16T10:07:45;7.20;;;2.30;;
10823;SDS011;39116;59.332;18.034;2023-03-16T10:10:22;5.83;;;2.30;;
10823;SDS011;39116;59.332;18.034;2023-03-16T10:12:59;8.03;;;2.37;;
10823;SDS011;39116;59.332;18.034;2023-03-16T10:15:24;14.17;;;2.27;;
10823;SDS011;39116;59.332;18.034;2023-03-16T10:17:50;8.87;;;2.43;;
10823;SDS011;39116;59.332;18.034;2023-03-16T10:20:16;12.93;;;2.10;;
10823;SDS011;39116;59.332;18.034;2023-03-16T10:22:41;10.87;;;2.07;;
10823;SDS011;39116;59.332;18.034;2023-03-16T10:25:07;6.60;;;2.43;;
10823;SDS011;39116;59.332;18.034;2023-03-16T10:27:34;8.20;;;2.17;;
10823;SDS011;39116;59.332;18.034;2023-03-16T10:29:59;12.57;;;2.37;;
10823;SDS011;39116;59.332;18.034;2023-03-16T10:32:23;6.27;;;2.40;;
10823;SDS011;39116;59.332;18.034;2023-03-16T10:34:51;8.80;;;1.80;;
10823;SDS011;39116;59.332;18.034;2023-03-16T10:37:16;7.33;;;2.40;;
10823;SDS011;39116;59.332;18.034;2023-03-16T10:39:39;7.27;;;2.10;;
10823;SDS011;39116;59.332;18.034;2023-03-16T10:42:03;8.97;;;2.47;;
10823;SDS011;39116;59.332;18.034;2023-03-16T10:44:25;6.03;;;2.10;;
10823;SDS011;39116;59.332;18.034;2023-03-16T10:46:58;6.93;;;2.13;;
10823;SDS011;39116;59.332;18.034;2023-03-16T10:49:23;5.40;;;2.40;;
10823;SDS011;39116;59.332;18.034;2023-03-16T10:51:46;6.07;;;2.30;;
10823;SDS011;39116;59.332;18.034;2023-03-16T10:54:11;8.73;;;3.23;;
10823;SDS011;39116;59.332;18.034;2023-03-16T10:56:36;10.17;;;3.40;;
10823;SDS011;39116;59.332;18.034;2023-03-16T10:58:59;8.97;;;2.97;;
10823;SDS011;39116;59.332;18.034;2023-03-16T11:01:23;11.23;;;2.47;;
10823;SDS011;39116;59.332;18.034;2023-03-16T11:03:49;7.60;;;2.20;;
10823;SDS011;39116;59.332;18.034;2023-03-16T11:06:18;8.67;;;2.33;;
10823;SDS011;39116;59.332;18.034;2023-03-16T11:08:43;10.30;;;2.60;;
10823;SDS011;39116;59.332;18.034;2023-03-16T11:11:07;8.00;;;2.90;;
10823;SDS011;39116;59.332;18.034;2023-03-16T11:13:32;6.40;;;2.40;;
10823;SDS011;39116;59.332;18.034;2023-03-16T11:15:59;12.67;;;5.77;;
10823;SDS011;39116;59.332;18.034;2023-03-16T11:18:27;7.23;;;2.53;;
10823;SDS011;39116;59.332;18.034;2023-03-16T11:20:52;4.77;;;2.03;;
10823;SDS011;39116;59.332;18.034;2023-03-16T11:23:16;13.83;;;2.50;;
10823;SDS011;39116;59.332;18.034;2023-03-16T11:25:42;5.27;;;2.00;;
10823;SDS011;39116;59.332;18.034;2023-03-16T11:28:12;4.57;;;1.80;;
10823;SDS011;39116;59.332;18.034;2023-03-16T11:30:39;7.13;;;2.47;;
10823;SDS011;39116;59.332;18.034;2023-03-16T11:33:03;6.67;;;2.27;;
10823;SDS011;39116;59.332;18.034;2023-03-16T11:35:32;5.87;;;2.03;;
10823;SDS011;39116;59.332;18.034;2023-03-16T11:38:08;6.33;;;2.20;;
10823;SDS011;39116;59.332;18.034;2023-03-16T11:40:36;7.90;;;2.27;;
10823;SDS011;39116;59.332;18.034;2023-03-16T11:43:08;6.37;;;2.20;;
10823;SDS011;39116;59.332;18.034;2023-03-16T11:45:43;9.47;;;2.70;;
10823;SDS011;39116;59.332;18.034;2023-03-16T11:51:01;5.97;;;2.00;;
10823;SDS011;39116;59.332;18.034;2023-03-16T11:53:34;7.37;;;2.17;;
10823;SDS011;39116;59.332;18.034;2023-03-16T11:56:10;5.67;;;2.30;;
10823;SDS011;39116;59.332;18.034;2023-03-16T11:58:42;5.20;;;2.20;;
10823;SDS011;39116;59.332;18.034;2023-03-16T12:01:30;9.70;;;2.13;;
10823;SDS011;39116;59.332;18.034;2023-03-16T12:04:10;6.87;;;2.30;;
10823;SDS011;39116;59.332;18.034;2023-03-16T12:06:45;10.30;;;2.73;;
10823;SDS011;39116;59.332;18.034;2023-03-16T12:09:26;10.20;;;2.50;;
10823;SDS011;39116;59.332;18.034;2023-03-16T12:12:09;6.33;;;2.00;;
10823;SDS011;39116;59.332;18.034;2023-03-16T12:14:43;6.43;;;2.53;;
10823;SDS011;39116;59.332;18.034;2023-03-16T12:17:12;5.57;;;2.30;;
10823;SDS011;39116;59.332;18.034;2023-03-16T12:19:40;9.33;;;3.07;;
10823;SDS011;39116;59.332;18.034;2023-03-16T12:22:07;9.20;;;2.17;;
10823;SDS011;39116;59.332;18.034;2023-03-16T12:24:40;7.23;;;3.07;;
10823;SDS011;39116;59.332;18.034;2023-03-16T12:27:05;7.90;;;2.73;;
10823;SDS011;39116;59.332;18.034;2023-03-16T12:29:33;4.87;;;2.23;;
10823;SDS011;39116;59.332;18.034;2023-03-16T12:32:06;8.37;;;3.03;;
10823;SDS011;39116;59.332;18.034;2023-03-16T12:34:33;9.10;;;2.33;;
10823;SDS011;39116;59.332;18.034;2023-03-16T12:37:04;7.23;;;2.70;;
10823;SDS011;39116;59.332;18.034;2023-03-16T12:39:41;7.77;;;2.60;;
10823;SDS011;39116;59.332;18.034;2023-03-16T12:42:21;6.57;;;2.43;;
10823;SDS011;39116;59.332;18.034;2023-03-16T12:44:53;8.37;;;2.20;;
10823;SDS011;39116;59.332;18.034;2023-03-16T12:47:18;6.03;;;2.07;;
10823;SDS011;39116;59.332;18.034;2023-03-16T12:49:48;6.97;;;1.83;;
10823;SDS011;39116;59.332;18.034;2023-03-16T12:52:11;4.30;;;2.27;;
10823;SDS011;39116;59.332;18.034;2023-03-16T12:54:34;10.10;;;2.27;;
10823;SDS011;39116;59.332;18.034;2023-03-16T12:57:02;7.20;;;2.90;;
10823;SDS011;39116;59.332;18.034;2023-03-16T12:59:34;6.33;;;2.17;;
10823;SDS011;39116;59.332;18.034;2023-03-16T13:02:00;4.30;;;2.07;;
10823;SDS011;39116;59.332;18.034;2023-03-16T13:04:29;7.17;;;2.40;;
10823;SDS011;39116;59.332;18.034;2023-03-16T13:06:59;6.37;;;2.40;;
10823;SDS011;39116;59.332;18.034;2023-03-16T13:09:24;5.00;;;2.20;;
10823;SDS011;39116;59.332;18.034;2023-03-16T13:11:51;5.33;;;2.00;;
10823;SDS011;39116;59.332;18.034;2023-03-16T13:14:14;5.07;;;2.10;;
10823;SDS011;39116;59.332;18.034;2023-03-16T13:16:51;7.37;;;2.53;;
10823;SDS011;39116;59.332;18.034;2023-03-16T13:19:26;5.60;;;2.40;;
10823;SDS011;39116;59.332;18.034;2023-03-16T13:21:58;7.40;;;2.33;;
10823;SDS011;39116;59.332;18.034;2023-03-16T13:24:24;6.65;;;2.53;;
10823;SDS011;39116;59.332;18.034;2023-03-16T13:26:49;6.57;;;2.60;;
10823;SDS011;39116;59.332;18.034;2023-03-16T13:29:24;6.43;;;2.20;;
10823;SDS011;39116;59.332;18.034;2023-03-16T13:31:48;7.38;;;2.15;;
10823;SDS011;39116;59.332;18.034;2023-03-16T13:34:12;5.13;;;2.10;;
10823;SDS011;39116;59.332;18.034;2023-03-16T13:36:39;5.35;;;2.05;;
10823;SDS011;39116;59.332;18.034;2023-03-16T13:39:05;7.32;;;2.90;;
10823;SDS011;39116;59.332;18.034;2023-03-16T13:41:35;4.27;;;2.00;;
10823;SDS011;39116;59.332;18.034;2023-03-16T13:43:57;5.07;;;1.80;;
10823;SDS011;39116;59.332;18.034;2023-03-16T13:46:25;4.10;;;1.70;;
10823;SDS011;39116;59.332;18.034;2023-03-16T13:48:49;7.47;;;2.60;;
10823;SDS011;39116;59.332;18.034;2023-03-16T13:51:12;7.37;;;2.60;;
10823;SDS011;39116;59.332;18.034;2023-03-16T13:53:39;7.13;;;2.13;;
10823;SDS011;39116;59.332;18.034;2023-03-16T13:56:01;6.88;;;2.40;;
10823;SDS011;39116;59.332;18.034;2023-03-16T13:58:26;5.23;;;1.60;;
10823;SDS011;39116;59.332;18.034;2023-03-16T14:00:53;6.53;;;1.80;;
10823;SDS011;39116;59.332;18.034;2023-03-16T14:03:18;9.00;;;2.60;;
10823;SDS011;39116;59.332;18.034;2023-03-16T14:05:41;6.05;;;1.75;;
10823;SDS011;39116;59.332;18.034;2023-03-16T14:08:11;5.78;;;1.77;;
10823;SDS011;39116;59.332;18.034;2023-03-16T14:10:36;3.67;;;1.70;;
10823;SDS011;39116;59.332;18.034;2023-03-16T14:13:05;4.20;;;1.77;;
10823;SDS011;39116;59.332;18.034;2023-03-16T14:15:29;3.90;;;1.90;;
10823;SDS011;39116;59.332;18.034;2023-03-16T14:17:51;6.95;;;1.80;;
10823;SDS011;39116;59.332;18.034;2023-03-16T14:20:17;8.27;;;2.30;;